createdAt,value
2018-03-16T00:00:28.422Z,26.75
2018-03-16T00:02:59.896Z,29.50
2018-03-16T00:05:31.254Z,33.00
2018-03-16T00:08:02.563Z,27.75
2018-03-16T00:10:34.222Z,31.25
2018-03-16T00:13:05.603Z,30.50
2018-03-16T00:15:37.023Z,28.25
2018-03-16T00:18:08.983Z,31.50
2018-03-16T00:20:46.004Z,28.50
2018-03-16T00:23:17.905Z,31.50
2018-03-16T00:25:49.189Z,36.75
2018-03-16T00:28:26.961Z,31.50
2018-03-16T00:30:58.292Z,35.75
2018-03-16T00:33:30.073Z,33.25
2018-03-16T00:36:01.688Z,24.50
2018-03-16T00:38:33.461Z,28.50
2018-03-16T00:41:04.782Z,31.50
2018-03-16T00:43:35.976Z,31.00
2018-03-16T00:46:07.508Z,30.50
2018-03-16T00:48:38.775Z,31.00
2018-03-16T00:51:10.335Z,30.25
2018-03-16T00:53:46.680Z,30.75
2018-03-16T00:56:18.038Z,29.75
2018-03-16T00:58:49.518Z,30.25
2018-03-16T01:01:22.502Z,31.50
2018-03-16T01:03:55.264Z,32.75
2018-03-16T01:06:26.869Z,25.00
2018-03-16T01:08:59.028Z,32.75
2018-03-16T01:11:31.940Z,26.00
2018-03-16T01:14:03.365Z,31.25
2018-03-16T01:16:35.206Z,33.00
2018-03-16T01:19:06.573Z,29.50
2018-03-16T01:21:38.185Z,26.75
2018-03-16T01:24:10.022Z,34.50
2018-03-16T01:26:41.554Z,31.50
2018-03-16T01:29:13.027Z,30.75
2018-03-16T01:31:45.682Z,28.75
2018-03-16T01:34:18.045Z,30.75
2018-03-16T01:36:49.605Z,30.75
2018-03-16T01:39:23.137Z,30.25
2018-03-16T01:41:54.555Z,30.50
2018-03-16T01:44:26.538Z,33.00
2018-03-16T01:46:59.343Z,27.50
2018-03-16T01:49:30.713Z,32.50
2018-03-16T01:52:02.197Z,31.75
2018-03-16T01:54:33.843Z,31.00
2018-03-16T01:57:05.894Z,28.75
2018-03-16T01:59:38.692Z,28.75
2018-03-16T02:02:11.084Z,34.25
2018-03-16T02:04:42.635Z,30.50
2018-03-16T02:07:14.036Z,28.00
2018-03-16T02:09:45.978Z,31.00
2018-03-16T02:12:17.902Z,29.50
2018-03-16T02:14:49.406Z,32.25
2018-03-16T02:17:21.077Z,34.50
2018-03-16T02:19:58.515Z,31.50
2018-03-16T02:22:29.854Z,33.00
2018-03-16T02:25:01.476Z,30.50
2018-03-16T02:27:32.970Z,29.00
2018-03-16T02:30:06.384Z,30.00
2018-03-16T02:32:38.265Z,32.00
2018-03-16T02:35:09.870Z,33.75
2018-03-16T02:37:41.117Z,29.25
2018-03-16T02:40:13.348Z,26.50
2018-03-16T02:42:44.815Z,33.75
2018-03-16T02:45:18.243Z,30.50
2018-03-16T02:47:49.516Z,32.00
2018-03-16T02:50:22.788Z,30.50
2018-03-16T02:52:53.874Z,30.50
2018-03-16T02:55:26.232Z,33.50
2018-03-16T02:57:57.350Z,32.00
2018-03-16T03:00:29.656Z,35.00
2018-03-16T03:03:00.765Z,31.75
2018-03-16T03:05:32.028Z,30.50
2018-03-16T03:08:03.270Z,34.50
2018-03-16T03:10:34.308Z,29.00
2018-03-16T03:13:04.908Z,29.75
2018-03-16T03:15:35.842Z,31.00
2018-03-16T03:18:06.846Z,34.75
2018-03-16T03:20:37.881Z,35.00
2018-03-16T03:23:08.608Z,33.25
2018-03-16T03:25:39.892Z,30.75
2018-03-16T03:28:10.772Z,35.00
2018-03-16T03:30:42.447Z,36.25
2018-03-16T03:33:14.486Z,33.25
2018-03-16T03:35:46.314Z,34.00
2018-03-16T03:38:18.054Z,37.25
2018-03-16T03:40:48.978Z,33.75
2018-03-16T03:43:21.421Z,36.00
2018-03-16T03:45:52.963Z,32.75
2018-03-16T03:48:26.366Z,30.00
2018-03-16T03:50:57.451Z,33.75
2018-03-16T03:53:28.677Z,35.25
2018-03-16T03:55:59.620Z,36.50
2018-03-16T03:58:33.728Z,37.75
2018-03-16T04:01:05.703Z,37.50
2018-03-16T04:03:37.192Z,36.25
2018-03-16T04:06:08.421Z,34.75
2018-03-16T04:08:41.518Z,38.00
2018-03-16T04:11:13.147Z,33.25
2018-03-16T04:13:44.486Z,42.75
2018-03-16T04:16:15.725Z,39.00
2018-03-16T04:18:46.980Z,38.25
2018-03-16T04:21:18.515Z,35.00
2018-03-16T04:23:49.686Z,37.75
2018-03-16T04:26:20.301Z,33.75
2018-03-16T04:28:51.413Z,31.25
2018-03-16T04:31:22.234Z,37.25
2018-03-16T04:33:52.729Z,33.00
2018-03-16T04:36:23.761Z,32.50
2018-03-16T04:38:54.235Z,35.75
2018-03-16T04:41:25.935Z,40.75
2018-03-16T04:43:58.622Z,39.75
2018-03-16T04:46:29.834Z,35.75
2018-03-16T04:49:00.639Z,36.50
2018-03-16T04:51:31.931Z,31.00
2018-03-16T04:54:02.872Z,39.25
2018-03-16T04:56:48.553Z,39.25
2018-03-16T04:59:19.487Z,40.00
2018-03-16T05:01:50.975Z,42.50
2018-03-16T05:04:22.495Z,41.00
2018-03-16T05:06:53.843Z,37.25
2018-03-16T05:09:30.872Z,38.75
2018-03-16T05:12:02.106Z,39.75
2018-03-16T05:14:33.355Z,38.25
2018-03-16T05:17:06.107Z,37.25
2018-03-16T05:19:37.999Z,34.75
2018-03-16T05:22:08.916Z,37.75
2018-03-16T05:24:41.475Z,43.25
2018-03-16T05:27:13.068Z,37.50
2018-03-16T05:29:44.506Z,36.75
2018-03-16T05:32:16.020Z,42.00
2018-03-16T05:34:47.350Z,38.50
2018-03-16T05:37:19.256Z,39.00
2018-03-16T05:39:50.337Z,39.25
2018-03-16T05:44:50.883Z,37.75
2018-03-16T05:47:22.652Z,37.25
2018-03-16T05:49:54.298Z,36.75
2018-03-16T05:52:25.353Z,43.75
2018-03-16T05:54:56.661Z,38.00
2018-03-16T05:57:29.031Z,37.50
2018-03-16T06:00:00.390Z,42.50
2018-03-16T06:02:35.516Z,40.50
2018-03-16T06:05:09.743Z,37.50
2018-03-16T06:07:41.171Z,38.25
2018-03-16T06:10:12.430Z,42.25
2018-03-16T06:12:45.139Z,39.75
2018-03-16T06:15:18.058Z,38.00
2018-03-16T06:17:49.988Z,41.00
2018-03-16T06:20:21.756Z,42.25
2018-03-16T06:22:53.224Z,43.50
2018-03-16T06:25:26.430Z,41.00
2018-03-16T06:27:57.764Z,39.50
2018-03-16T06:30:29.964Z,34.50
2018-03-16T06:33:01.392Z,39.75
2018-03-16T06:35:33.680Z,41.75
2018-03-16T06:38:05.091Z,44.75
2018-03-16T06:40:36.417Z,37.50
2018-03-16T06:43:08.587Z,46.00
2018-03-16T06:45:45.900Z,41.00
2018-03-16T06:48:17.234Z,41.00
2018-03-16T06:50:49.269Z,43.75
2018-03-16T06:53:21.730Z,44.25
2018-03-16T06:56:03.926Z,44.75
2018-03-16T06:58:39.569Z,48.25
2018-03-16T07:01:11.976Z,43.75
2018-03-16T07:03:43.114Z,41.50
2018-03-16T07:06:15.008Z,43.75
2018-03-16T07:08:46.287Z,40.25
2018-03-16T07:11:26.996Z,41.00
2018-03-16T07:14:00.679Z,43.00
2018-03-16T07:16:33.155Z,43.25
2018-03-16T07:19:04.600Z,46.00
2018-03-16T07:21:35.911Z,50.25
2018-03-16T07:24:07.397Z,45.25
2018-03-16T07:26:40.599Z,43.25
2018-03-16T07:29:12.130Z,44.25
2018-03-16T07:31:50.426Z,42.50
2018-03-16T07:34:22.407Z,39.25
2018-03-16T07:36:54.915Z,45.00
2018-03-16T07:39:26.245Z,41.00
2018-03-16T07:41:58.864Z,41.75
2018-03-16T07:44:31.062Z,43.00
2018-03-16T07:47:03.036Z,40.25
2018-03-16T07:49:35.347Z,39.00
2018-03-16T07:52:09.016Z,39.50
2018-03-16T07:54:40.970Z,38.75
2018-03-16T07:57:12.225Z,46.00
2018-03-16T07:59:43.913Z,44.00
2018-03-16T08:02:20.074Z,42.75
2018-03-16T08:04:51.783Z,41.25
2018-03-16T08:07:27.078Z,48.25
2018-03-16T08:09:58.487Z,41.50
2018-03-16T08:12:31.829Z,43.50
2018-03-16T08:15:06.400Z,42.75
2018-03-16T08:17:38.749Z,40.75
2018-03-16T08:22:54.522Z,43.75
2018-03-16T08:25:31.043Z,41.00
2018-03-16T08:28:05.359Z,43.50
2018-03-16T08:30:37.992Z,40.50
2018-03-16T08:33:10.153Z,39.50
2018-03-16T08:35:41.942Z,41.75
2018-03-16T08:38:12.984Z,43.50
2018-03-16T08:40:45.081Z,42.25
2018-03-16T08:43:16.399Z,41.25
2018-03-16T08:45:49.289Z,42.00
2018-03-16T08:48:20.845Z,34.25
2018-03-16T08:50:53.070Z,40.25
2018-03-16T08:53:26.833Z,39.75
2018-03-16T08:55:57.875Z,45.25
2018-03-16T08:58:36.085Z,36.50
2018-03-16T09:01:09.906Z,41.50
2018-03-16T09:03:41.360Z,44.25
2018-03-16T09:06:16.645Z,40.00
2018-03-16T09:08:48.024Z,40.75
2018-03-16T09:11:19.452Z,40.25
2018-03-16T09:13:50.713Z,38.50
2018-03-16T09:16:22.825Z,44.25
2018-03-16T09:18:56.735Z,37.25
2018-03-16T09:21:27.924Z,37.75
2018-03-16T09:24:01.178Z,39.75
2018-03-16T09:26:33.467Z,40.00
2018-03-16T09:29:04.987Z,41.00
2018-03-16T09:31:36.723Z,37.25
2018-03-16T09:34:10.083Z,36.25
2018-03-16T09:36:42.643Z,41.25
2018-03-16T09:39:15.639Z,42.75
2018-03-16T09:41:48.847Z,40.00
2018-03-16T09:44:20.317Z,41.00
2018-03-16T09:46:54.673Z,50.25
2018-03-16T09:49:30.824Z,40.25
2018-03-16T09:52:02.746Z,41.00
2018-03-16T09:54:40.421Z,40.00
2018-03-16T09:57:12.051Z,38.75
2018-03-16T09:59:43.058Z,38.00
2018-03-16T10:02:14.316Z,49.00
2018-03-16T10:04:46.110Z,46.50
2018-03-16T10:07:17.712Z,49.50
2018-03-16T10:10:11.386Z,53.25
2018-03-16T10:12:42.600Z,51.75
2018-03-16T10:15:20.047Z,47.25
2018-03-16T10:17:53.070Z,53.50
2018-03-16T10:20:24.014Z,52.75
2018-03-16T10:22:55.030Z,51.50
2018-03-16T10:25:25.871Z,50.75
2018-03-16T10:27:57.521Z,52.25
2018-03-16T10:30:29.074Z,52.50
2018-03-16T10:33:01.344Z,54.25
2018-03-16T10:35:36.970Z,51.75
2018-03-16T10:38:08.835Z,52.75
2018-03-16T10:40:40.967Z,51.50
2018-03-16T10:43:12.917Z,55.00
2018-03-16T10:45:46.658Z,50.00
2018-03-16T10:48:18.161Z,55.75
2018-03-16T10:50:48.953Z,51.00
2018-03-16T10:53:22.182Z,53.50
2018-03-16T10:55:54.413Z,47.50
2018-03-16T10:58:27.185Z,49.75
2018-03-16T11:01:00.551Z,51.75
2018-03-16T11:03:35.679Z,49.75
2018-03-16T11:06:08.119Z,49.50
2018-03-16T11:08:41.390Z,50.00
2018-03-16T11:11:13.037Z,47.50
2018-03-16T11:13:48.092Z,47.50
2018-03-16T11:16:23.640Z,50.00
2018-03-16T11:18:56.433Z,49.50
2018-03-16T11:21:28.509Z,45.25
2018-03-16T11:24:11.875Z,48.75
2018-03-16T11:26:43.938Z,47.75
2018-03-16T11:29:16.356Z,48.25
2018-03-16T11:31:47.845Z,46.00
2018-03-16T11:34:20.903Z,48.50
2018-03-16T11:36:52.395Z,47.25
2018-03-16T11:39:27.732Z,45.75
2018-03-16T11:41:59.780Z,49.50
2018-03-16T11:44:31.358Z,45.50
2018-03-16T11:47:03.407Z,46.50
2018-03-16T11:49:34.924Z,47.75
2018-03-16T11:52:06.246Z,45.50
2018-03-16T11:54:37.494Z,42.50
2018-03-16T11:57:09.079Z,50.50
2018-03-16T11:59:39.886Z,44.00
2018-03-16T12:02:11.527Z,49.25
2018-03-16T12:04:44.031Z,46.75
2018-03-16T12:07:15.350Z,46.75
2018-03-16T12:09:47.533Z,45.50
2018-03-16T12:12:24.877Z,47.75
2018-03-16T12:14:58.797Z,46.75
2018-03-16T12:17:30.851Z,44.25
2018-03-16T12:20:04.432Z,41.50
2018-03-16T12:22:36.655Z,47.50
2018-03-16T12:25:08.429Z,44.25
2018-03-16T12:27:41.392Z,41.75
2018-03-16T12:30:17.774Z,49.25
2018-03-16T12:32:49.774Z,47.75
2018-03-16T12:35:21.422Z,43.00
2018-03-16T12:37:52.527Z,48.25
2018-03-16T12:40:30.045Z,43.75
2018-03-16T12:43:02.150Z,46.00
2018-03-16T12:45:34.348Z,38.25
2018-03-16T12:48:15.491Z,45.50
2018-03-16T12:50:47.900Z,47.75
2018-03-16T12:53:20.633Z,42.25
2018-03-16T12:55:51.886Z,43.75
2018-03-16T12:58:26.613Z,47.50
2018-03-16T13:01:00.225Z,46.50
2018-03-16T13:03:31.382Z,37.50
2018-03-16T13:06:06.388Z,39.00
2018-03-16T13:08:37.703Z,42.75
2018-03-16T13:11:08.791Z,39.75
2018-03-16T13:13:40.436Z,46.00
2018-03-16T13:16:19.802Z,47.75
2018-03-16T13:18:53.224Z,49.75
2018-03-16T13:21:28.490Z,47.75
2018-03-16T13:26:35.429Z,44.00
2018-03-16T13:29:17.078Z,48.00
2018-03-16T13:31:48.904Z,45.50
2018-03-16T13:34:21.558Z,43.75
2018-03-16T13:36:53.760Z,45.50
2018-03-16T13:39:26.836Z,44.00
2018-03-16T13:41:58.531Z,49.25
2018-03-16T13:44:41.341Z,49.00
2018-03-16T13:47:15.202Z,49.00
2018-03-16T13:49:46.859Z,48.50
2018-03-16T13:52:26.399Z,44.50
2018-03-16T13:54:57.810Z,48.50
2018-03-16T13:57:29.699Z,46.00
2018-03-16T14:00:00.675Z,44.25
2018-03-16T14:02:37.602Z,44.00
2018-03-16T14:05:10.335Z,43.50
2018-03-16T14:07:41.705Z,49.25
2018-03-16T14:10:13.684Z,49.00
2018-03-16T14:12:46.648Z,45.75
2018-03-16T14:15:25.097Z,45.00
2018-03-16T14:18:00.056Z,49.25
2018-03-16T14:20:31.165Z,48.75
2018-03-16T14:23:02.826Z,42.50
2018-03-16T14:25:36.187Z,48.50
2018-03-16T14:28:07.113Z,48.00
2018-03-16T14:30:38.672Z,45.50
2018-03-16T14:33:21.261Z,43.00
2018-03-16T14:35:58.403Z,43.25
2018-03-16T14:48:26.125Z,45.75
2018-03-16T14:50:57.673Z,41.50
2018-03-16T14:53:39.920Z,35.25
2018-03-16T14:56:14.736Z,39.75
2018-03-16T14:58:46.440Z,42.00
2018-03-16T15:01:22.250Z,41.25
2018-03-16T15:03:59.014Z,37.50
2018-03-16T15:06:41.089Z,37.50
2018-03-16T15:13:09.989Z,37.50
2018-03-16T15:15:43.305Z,33.00
2018-03-16T15:18:21.548Z,29.00
2018-03-16T15:20:59.368Z,24.25
2018-03-16T15:23:34.662Z,26.50
2018-03-16T15:26:08.790Z,32.25
2018-03-16T15:28:46.387Z,28.75
2018-03-16T15:31:20.046Z,30.00
2018-03-16T15:33:56.324Z,29.75
2018-03-16T15:36:34.471Z,30.50
2018-03-16T15:39:06.631Z,28.00
2018-03-16T15:41:44.110Z,31.50
2018-03-16T15:44:15.684Z,24.50
2018-03-16T15:46:48.928Z,24.50
2018-03-16T15:52:18.736Z,24.25
2018-03-16T15:54:53.107Z,23.25
2018-03-16T15:57:31.320Z,26.25
2018-03-16T16:00:05.884Z,19.25
2018-03-16T16:02:38.643Z,17.50
2018-03-16T16:05:10.622Z,26.00
2018-03-16T16:07:41.775Z,20.75
2018-03-16T16:10:13.820Z,21.75
2018-03-16T16:12:45.394Z,19.00
2018-03-16T16:15:19.110Z,20.25
2018-03-16T16:17:50.304Z,17.50
2018-03-16T16:20:21.878Z,18.50
2018-03-16T16:22:54.615Z,25.25
2018-03-16T16:25:26.858Z,16.25
2018-03-16T16:27:59.985Z,16.25
2018-03-16T16:30:34.357Z,17.75
2018-03-16T16:33:06.093Z,22.00
2018-03-16T16:35:38.335Z,18.25
2018-03-16T16:38:09.505Z,23.75
2018-03-16T16:40:41.307Z,24.25
2018-03-16T16:43:12.218Z,13.25
2018-03-16T16:45:49.889Z,19.25
2018-03-16T16:48:22.716Z,25.50
2018-03-16T16:50:56.507Z,18.25
2018-03-16T16:53:28.482Z,18.00
2018-03-16T16:56:05.803Z,21.00
2018-03-16T16:58:39.630Z,21.00
2018-03-16T17:01:14.443Z,21.75
2018-03-16T17:06:32.795Z,26.50
2018-03-16T17:09:04.215Z,32.25
2018-03-16T17:11:38.211Z,26.50
2018-03-16T17:14:15.326Z,32.75
2018-03-16T17:16:46.881Z,25.75
2018-03-16T17:19:25.004Z,24.00
2018-03-16T17:22:04.690Z,25.25
2018-03-16T17:24:37.784Z,33.25
2018-03-16T17:27:12.104Z,31.75
2018-03-16T17:32:31.063Z,32.50
2018-03-16T17:35:10.124Z,31.00
2018-03-16T17:37:43.003Z,32.00
2018-03-16T17:40:18.048Z,40.25
2018-03-16T17:48:28.668Z,33.00
2018-03-16T17:51:00.816Z,34.50
2018-03-16T17:53:34.397Z,34.25
2018-03-16T17:56:07.734Z,35.75
2018-03-16T17:58:40.948Z,23.00
2018-03-16T18:01:14.505Z,36.50
2018-03-16T18:03:46.131Z,29.25
2018-03-16T18:06:21.413Z,32.75
2018-03-16T18:08:54.322Z,33.25
2018-03-16T18:11:29.723Z,28.25
2018-03-16T18:14:01.255Z,31.50
2018-03-16T18:16:32.809Z,26.00
2018-03-16T18:19:05.712Z,28.00
2018-03-16T18:21:37.046Z,26.75
2018-03-16T18:24:09.059Z,30.25
2018-03-16T18:26:43.032Z,36.50
2018-03-16T18:31:53.405Z,39.00
2018-03-16T18:34:36.020Z,37.75
2018-03-16T18:37:13.624Z,39.75
2018-03-16T18:39:47.482Z,39.25
2018-03-16T18:42:20.391Z,42.50
2018-03-16T18:44:53.969Z,46.50
2018-03-16T18:47:38.777Z,33.00
2018-03-16T18:50:11.667Z,33.75
2018-03-16T18:52:44.637Z,32.00
2018-03-16T18:55:16.441Z,42.00
2018-03-16T18:57:47.810Z,31.25
2018-03-16T19:00:21.127Z,29.75
2018-03-16T19:02:52.169Z,30.50
2018-03-16T19:05:24.145Z,34.50
2018-03-16T19:07:56.973Z,35.75
2018-03-16T19:10:29.228Z,36.50
2018-03-16T19:13:02.781Z,42.75
2018-03-16T19:15:33.887Z,38.25
2018-03-16T19:18:05.803Z,36.75
2018-03-16T19:20:36.986Z,32.25
2018-03-16T19:23:09.707Z,33.00
2018-03-16T19:25:40.479Z,39.50
2018-03-16T19:28:12.446Z,37.75
2018-03-16T19:30:44.720Z,33.50
2018-03-16T19:36:19.740Z,27.75
2018-03-16T19:38:51.767Z,34.25
2018-03-16T19:41:23.017Z,39.75
2018-03-16T19:43:54.296Z,41.50
2018-03-16T19:46:25.956Z,34.00
2018-03-16T19:48:58.442Z,28.75
2018-03-16T19:51:29.855Z,28.00
2018-03-16T19:54:00.819Z,39.50
2018-03-16T19:56:31.533Z,36.25
2018-03-16T19:59:05.913Z,33.00
2018-03-16T20:01:37.618Z,40.25
2018-03-16T20:04:09.652Z,37.25
2018-03-16T20:06:40.502Z,28.50
2018-03-16T20:09:11.760Z,28.25
2018-03-16T20:11:42.695Z,29.75
2018-03-16T20:14:13.888Z,38.25
2018-03-16T20:16:45.461Z,41.50
2018-03-16T20:19:16.613Z,34.50
2018-03-16T20:21:47.576Z,42.75
2018-03-16T20:24:18.683Z,33.50
2018-03-16T20:26:51.163Z,32.50
2018-03-16T20:29:24.572Z,35.25
2018-03-16T20:31:55.870Z,35.00
2018-03-16T20:34:34.102Z,31.00
2018-03-16T20:37:05.599Z,36.25
2018-03-16T20:39:39.031Z,34.50
2018-03-16T20:42:13.357Z,41.75
2018-03-16T20:44:44.753Z,29.75
2018-03-16T20:47:16.345Z,36.50
2018-03-16T20:49:47.838Z,30.25
2018-03-16T20:52:18.845Z,37.00
2018-03-16T20:54:50.265Z,38.75
2018-03-16T20:57:21.824Z,35.00
2018-03-16T21:00:00.622Z,36.75
2018-03-16T21:02:44.721Z,34.75
2018-03-16T21:05:15.806Z,28.50
2018-03-16T21:07:47.067Z,30.25
2018-03-16T21:10:19.104Z,33.50
2018-03-16T21:12:52.074Z,38.00
2018-03-16T21:15:24.314Z,39.75
2018-03-16T21:17:56.157Z,33.75
2018-03-16T21:20:28.014Z,32.75
2018-03-16T21:22:58.751Z,35.25
2018-03-16T21:25:29.793Z,40.25
2018-03-16T21:28:02.856Z,35.25
2018-03-16T21:30:34.543Z,34.25
2018-03-16T21:33:08.997Z,31.00
2018-03-16T21:35:40.993Z,35.00
2018-03-16T21:38:12.475Z,26.00
2018-03-16T21:40:44.847Z,28.50
2018-03-16T21:43:16.668Z,40.25
2018-03-16T21:45:48.327Z,27.25
2018-03-16T21:48:19.519Z,36.50
2018-03-16T21:50:53.581Z,41.50
2018-03-16T21:53:28.930Z,36.25
2018-03-16T21:56:01.665Z,35.50
2018-03-16T21:58:33.781Z,37.00
2018-03-16T22:01:05.054Z,29.75
2018-03-16T22:03:37.288Z,36.50
2018-03-16T22:06:09.520Z,27.75
2018-03-16T22:08:47.659Z,38.00
2018-03-16T22:11:20.057Z,32.75
2018-03-16T22:13:50.834Z,35.50
2018-03-16T22:16:21.679Z,40.25
2018-03-16T22:18:52.730Z,26.50
2018-03-16T22:21:26.177Z,25.00
2018-03-16T22:23:58.285Z,34.75
2018-03-16T22:26:31.257Z,33.50
2018-03-16T22:29:03.194Z,37.00
2018-03-16T22:31:40.080Z,40.75
2018-03-16T22:34:12.437Z,44.00
2018-03-16T22:36:45.289Z,36.50
2018-03-16T22:39:16.110Z,26.50
2018-03-16T22:41:48.683Z,41.25
2018-03-16T22:44:21.434Z,35.75
2018-03-16T22:46:52.985Z,37.75
2018-03-16T22:49:24.919Z,25.75
2018-03-16T22:51:56.308Z,40.25
2018-03-16T22:54:29.490Z,41.75
2018-03-16T22:57:01.235Z,32.50
2018-03-16T22:59:33.157Z,39.75
2018-03-16T23:02:08.000Z,40.50
2018-03-16T23:04:39.727Z,29.75
2018-03-16T23:07:11.836Z,39.25
2018-03-16T23:09:42.998Z,36.75
2018-03-16T23:12:14.577Z,35.25
2018-03-16T23:14:45.646Z,33.50
2018-03-16T23:17:16.890Z,34.50
2018-03-16T23:19:48.362Z,37.50
2018-03-16T23:22:20.085Z,34.75
2018-03-16T23:24:51.684Z,38.75
2018-03-16T23:27:23.793Z,40.75
2018-03-16T23:29:55.056Z,37.75
2018-03-16T23:32:27.319Z,36.00
2018-03-16T23:34:58.682Z,34.50
2018-03-16T23:37:31.397Z,36.75
2018-03-16T23:40:02.775Z,42.25
2018-03-16T23:42:34.106Z,38.75
2018-03-16T23:45:09.122Z,30.75
2018-03-16T23:47:42.644Z,40.50
2018-03-16T23:50:14.759Z,40.75
2018-03-16T23:52:46.942Z,37.50
2018-03-16T23:55:18.612Z,37.75
2018-03-16T23:57:50.929Z,31.00
